sensor_id;sensor_type;location;lat;lon;timestamp;pressure;altitude;pressure_sealevel;temperature;humidity
78168;BME280;67410;42.698;23.378;2024-01-06T00:01:53;95469.66;;;3.45;90.84
78168;BME280;67410;42.698;23.378;2024-01-06T00:04:19;95458.28;;;3.46;90.00
78168;BME280;67410;42.698;23.378;2024-01-06T00:06:45;95476.97;;;3.50;90.40
78168;BME280;67410;42.698;23.378;2024-01-06T00:09:11;95458.09;;;3.48;90.33
78168;BME280;67410;42.698;23.378;2024-01-06T00:11:37;95454.84;;;3.46;90.79
78168;BME280;67410;42.698;23.378;2024-01-06T00:14:04;95455.66;;;3.46;90.70
78168;BME280;67410;42.698;23.378;2024-01-06T00:16:30;95436.00;;;3.44;91.12
78168;BME280;67410;42.698;23.378;2024-01-06T00:18:56;95446.19;;;3.53;91.42
78168;BME280;67410;42.698;23.378;2024-01-06T00:21:22;95447.59;;;3.56;90.69
78168;BME280;67410;42.698;23.378;2024-01-06T00:23:49;95477.69;;;3.58;89.43
78168;BME280;67410;42.698;23.378;2024-01-06T00:26:15;95472.09;;;3.47;90.19
78168;BME280;67410;42.698;23.378;2024-01-06T00:28:41;95473.41;;;3.43;90.94
78168;BME280;67410;42.698;23.378;2024-01-06T00:31:08;95467.09;;;3.37;90.54
78168;BME280;67410;42.698;23.378;2024-01-06T00:33:34;95464.94;;;3.49;90.67
78168;BME280;67410;42.698;23.378;2024-01-06T00:36:00;95463.00;;;3.43;91.34
78168;BME280;67410;42.698;23.378;2024-01-06T00:38:26;95461.69;;;3.47;90.84
78168;BME280;67410;42.698;23.378;2024-01-06T00:40:52;95467.44;;;3.34;91.01
78168;BME280;67410;42.698;23.378;2024-01-06T00:43:18;95463.13;;;3.26;91.91
78168;BME280;67410;42.698;23.378;2024-01-06T00:45:44;95464.03;;;3.33;90.98
78168;BME280;67410;42.698;23.378;2024-01-06T00:48:11;95465.31;;;3.37;90.76
78168;BME280;67410;42.698;23.378;2024-01-06T00:50:37;95468.69;;;3.46;90.21
78168;BME280;67410;42.698;23.378;2024-01-06T00:53:03;95443.22;;;3.33;90.03
78168;BME280;67410;42.698;23.378;2024-01-06T00:55:29;95439.97;;;3.31;90.87
78168;BME280;67410;42.698;23.378;2024-01-06T00:57:55;95452.25;;;3.23;91.91
78168;BME280;67410;42.698;23.378;2024-01-06T01:00:21;95459.53;;;3.27;91.02
78168;BME280;67410;42.698;23.378;2024-01-06T01:02:48;95466.28;;;3.05;90.14
78168;BME280;67410;42.698;23.378;2024-01-06T01:05:14;95460.59;;;3.10;90.73
78168;BME280;67410;42.698;23.378;2024-01-06T01:07:40;95469.03;;;3.12;90.41
78168;BME280;67410;42.698;23.378;2024-01-06T01:10:06;95468.69;;;3.15;89.88
78168;BME280;67410;42.698;23.378;2024-01-06T01:12:33;95456.41;;;3.01;90.00
78168;BME280;67410;42.698;23.378;2024-01-06T01:14:59;95457.34;;;3.08;89.61
78168;BME280;67410;42.698;23.378;2024-01-06T01:17:25;95452.91;;;2.86;90.03
78168;BME280;67410;42.698;23.378;2024-01-06T01:19:51;95443.50;;;2.77;91.73
78168;BME280;67410;42.698;23.378;2024-01-06T01:22:17;95448.06;;;2.75;90.75
78168;BME280;67410;42.698;23.378;2024-01-06T01:24:43;95438.84;;;2.72;91.55
78168;BME280;67410;42.698;23.378;2024-01-06T01:27:09;95449.97;;;2.89;91.72
78168;BME280;67410;42.698;23.378;2024-01-06T01:29:35;95448.94;;;2.67;90.78
78168;BME280;67410;42.698;23.378;2024-01-06T01:32:02;95451.03;;;2.63;90.21
78168;BME280;67410;42.698;23.378;2024-01-06T01:34:28;95438.88;;;2.64;89.43
78168;BME280;67410;42.698;23.378;2024-01-06T01:36:54;95439.84;;;2.55;89.60
78168;BME280;67410;42.698;23.378;2024-01-06T01:39:20;95423.22;;;2.33;89.94
78168;BME280;67410;42.698;23.378;2024-01-06T01:41:46;95424.81;;;2.42;89.63
78168;BME280;67410;42.698;23.378;2024-01-06T01:44:12;95430.75;;;2.59;88.96
78168;BME280;67410;42.698;23.378;2024-01-06T01:46:39;95428.31;;;2.65;88.81
78168;BME280;67410;42.698;23.378;2024-01-06T01:49:06;95407.13;;;2.37;89.90
78168;BME280;67410;42.698;23.378;2024-01-06T01:51:34;95419.31;;;2.37;90.00
78168;BME280;67410;42.698;23.378;2024-01-06T01:54:04;95420.94;;;2.38;90.10
78168;BME280;67410;42.698;23.378;2024-01-06T01:56:34;95424.50;;;2.29;90.18
78168;BME280;67410;42.698;23.378;2024-01-06T01:59:06;95407.13;;;2.29;90.75
78168;BME280;67410;42.698;23.378;2024-01-06T02:01:34;95403.78;;;2.13;91.87
78168;BME280;67410;42.698;23.378;2024-01-06T02:04:00;95406.50;;;2.19;93.29
78168;BME280;67410;42.698;23.378;2024-01-06T02:06:26;95417.84;;;2.43;93.15
78168;BME280;67410;42.698;23.378;2024-01-06T02:08:53;95401.44;;;2.34;92.37
78168;BME280;67410;42.698;23.378;2024-01-06T02:11:19;95405.19;;;2.31;92.29
78168;BME280;67410;42.698;23.378;2024-01-06T02:13:45;95410.84;;;2.43;91.86
78168;BME280;67410;42.698;23.378;2024-01-06T02:16:12;95390.34;;;2.48;90.98
78168;BME280;67410;42.698;23.378;2024-01-06T02:18:38;95381.34;;;2.28;92.28
78168;BME280;67410;42.698;23.378;2024-01-06T02:21:06;95378.84;;;2.43;92.23
78168;BME280;67410;42.698;23.378;2024-01-06T02:23:35;95369.88;;;2.53;91.33
78168;BME280;67410;42.698;23.378;2024-01-06T02:26:02;95364.75;;;2.37;91.99
78168;BME280;67410;42.698;23.378;2024-01-06T02:28:29;95380.19;;;2.30;92.06
78168;BME280;67410;42.698;23.378;2024-01-06T02:30:55;95367.81;;;1.85;94.54
78168;BME280;67410;42.698;23.378;2024-01-06T02:33:21;95366.03;;;1.78;96.04
78168;BME280;67410;42.698;23.378;2024-01-06T02:35:50;95371.22;;;1.86;95.64
78168;BME280;67410;42.698;23.378;2024-01-06T02:38:16;95357.53;;;2.08;95.12
78168;BME280;67410;42.698;23.378;2024-01-06T02:40:42;95344.72;;;2.07;95.04
78168;BME280;67410;42.698;23.378;2024-01-06T02:43:09;95357.63;;;2.23;95.42
78168;BME280;67410;42.698;23.378;2024-01-06T02:45:35;95356.97;;;2.29;93.98
78168;BME280;67410;42.698;23.378;2024-01-06T02:48:01;95344.94;;;2.36;93.69
78168;BME280;67410;42.698;23.378;2024-01-06T02:50:27;95355.00;;;2.39;93.76
78168;BME280;67410;42.698;23.378;2024-01-06T02:52:54;95345.41;;;2.40;93.23
78168;BME280;67410;42.698;23.378;2024-01-06T02:55:20;95359.00;;;2.50;93.00
78168;BME280;67410;42.698;23.378;2024-01-06T02:57:46;95353.13;;;2.56;92.46
78168;BME280;67410;42.698;23.378;2024-01-06T03:00:12;95327.94;;;2.56;91.94
78168;BME280;67410;42.698;23.378;2024-01-06T03:02:41;95332.47;;;2.62;92.16
78168;BME280;67410;42.698;23.378;2024-01-06T03:05:09;95326.63;;;2.60;92.13
78168;BME280;67410;42.698;23.378;2024-01-06T03:07:36;95330.22;;;2.59;91.96
78168;BME280;67410;42.698;23.378;2024-01-06T03:10:02;95312.13;;;2.43;91.45
78168;BME280;67410;42.698;23.378;2024-01-06T03:12:28;95329.72;;;2.56;91.63
78168;BME280;67410;42.698;23.378;2024-01-06T03:14:54;95332.06;;;2.73;90.74
78168;BME280;67410;42.698;23.378;2024-01-06T03:17:20;95326.69;;;2.75;89.96
78168;BME280;67410;42.698;23.378;2024-01-06T03:19:47;95329.19;;;2.68;89.73
78168;BME280;67410;42.698;23.378;2024-01-06T03:22:13;95323.19;;;2.68;89.94
78168;BME280;67410;42.698;23.378;2024-01-06T03:24:40;95329.06;;;2.62;90.17
78168;BME280;67410;42.698;23.378;2024-01-06T03:27:06;95319.81;;;2.59;90.51
78168;BME280;67410;42.698;23.378;2024-01-06T03:29:32;95305.84;;;2.60;90.26
78168;BME280;67410;42.698;23.378;2024-01-06T03:31:58;95310.22;;;2.60;90.51
78168;BME280;67410;42.698;23.378;2024-01-06T03:34:24;95313.00;;;2.58;90.58
78168;BME280;67410;42.698;23.378;2024-01-06T03:36:50;95322.88;;;2.63;88.94
78168;BME280;67410;42.698;23.378;2024-01-06T03:39:16;95314.38;;;2.46;88.82
78168;BME280;67410;42.698;23.378;2024-01-06T03:41:42;95314.19;;;2.48;88.54
78168;BME280;67410;42.698;23.378;2024-01-06T03:44:08;95307.91;;;2.42;88.90
78168;BME280;67410;42.698;23.378;2024-01-06T03:46:35;95328.78;;;2.49;88.70
78168;BME280;67410;42.698;23.378;2024-01-06T03:49:01;95322.03;;;2.40;88.59
78168;BME280;67410;42.698;23.378;2024-01-06T03:51:27;95325.13;;;2.35;89.52
78168;BME280;67410;42.698;23.378;2024-01-06T03:53:54;95326.59;;;2.37;89.26
78168;BME280;67410;42.698;23.378;2024-01-06T03:56:20;95319.44;;;2.40;89.67
78168;BME280;67410;42.698;23.378;2024-01-06T03:58:46;95309.41;;;2.28;89.26
78168;BME280;67410;42.698;23.378;2024-01-06T04:01:12;95306.97;;;2.27;89.68
78168;BME280;67410;42.698;23.378;2024-01-06T04:03:39;95308.75;;;2.26;90.14
78168;BME280;67410;42.698;23.378;2024-01-06T04:06:08;95313.28;;;2.32;89.55
78168;BME280;67410;42.698;23.378;2024-01-06T04:08:42;95320.09;;;2.33;88.80
78168;BME280;67410;42.698;23.378;2024-01-06T04:11:08;95310.41;;;2.19;89.51
78168;BME280;67410;42.698;23.378;2024-01-06T04:13:34;95330.03;;;2.22;90.30
78168;BME280;67410;42.698;23.378;2024-01-06T04:16:00;95322.78;;;2.17;89.79
78168;BME280;67410;42.698;23.378;2024-01-06T04:18:26;95314.19;;;2.17;89.76
78168;BME280;67410;42.698;23.378;2024-01-06T04:20:52;95319.72;;;2.14;90.08
78168;BME280;67410;42.698;23.378;2024-01-06T04:23:18;95313.16;;;2.26;90.74
78168;BME280;67410;42.698;23.378;2024-01-06T04:25:44;95293.34;;;2.25;90.58
78168;BME280;67410;42.698;23.378;2024-01-06T04:28:10;95307.94;;;2.26;90.92
78168;BME280;67410;42.698;23.378;2024-01-06T04:30:36;95314.25;;;2.40;90.48
78168;BME280;67410;42.698;23.378;2024-01-06T04:33:03;95315.25;;;2.30;90.68
78168;BME280;67410;42.698;23.378;2024-01-06T04:35:29;95326.22;;;2.10;91.24
78168;BME280;67410;42.698;23.378;2024-01-06T04:37:55;95330.59;;;2.09;90.83
78168;BME280;67410;42.698;23.378;2024-01-06T04:40:21;95331.03;;;2.21;90.73
78168;BME280;67410;42.698;23.378;2024-01-06T04:42:47;95343.03;;;2.22;90.79
78168;BME280;67410;42.698;23.378;2024-01-06T04:45:13;95342.03;;;2.31;90.93
78168;BME280;67410;42.698;23.378;2024-01-06T04:47:39;95323.88;;;2.23;89.96
78168;BME280;67410;42.698;23.378;2024-01-06T04:50:05;95323.53;;;2.26;90.45
78168;BME280;67410;42.698;23.378;2024-01-06T04:52:32;95331.81;;;2.29;91.43
78168;BME280;67410;42.698;23.378;2024-01-06T04:54:58;95330.31;;;2.43;90.96
78168;BME280;67410;42.698;23.378;2024-01-06T04:57:24;95330.66;;;2.32;90.77
78168;BME280;67410;42.698;23.378;2024-01-06T04:59:50;95345.41;;;2.40;91.09
78168;BME280;67410;42.698;23.378;2024-01-06T05:02:16;95344.28;;;2.34;90.93
78168;BME280;67410;42.698;23.378;2024-01-06T05:04:42;95322.56;;;2.27;90.60
78168;BME280;67410;42.698;23.378;2024-01-06T05:07:08;95319.81;;;2.28;91.07
78168;BME280;67410;42.698;23.378;2024-01-06T05:09:34;95337.78;;;2.38;91.00
78168;BME280;67410;42.698;23.378;2024-01-06T05:12:00;95324.34;;;2.26;90.35
78168;BME280;67410;42.698;23.378;2024-01-06T05:14:26;95302.34;;;2.14;90.98
78168;BME280;67410;42.698;23.378;2024-01-06T05:16:52;95297.16;;;2.14;91.57
78168;BME280;67410;42.698;23.378;2024-01-06T05:19:18;95298.22;;;2.20;92.35
78168;BME280;67410;42.698;23.378;2024-01-06T05:21:47;95302.63;;;2.19;90.86
78168;BME280;67410;42.698;23.378;2024-01-06T05:24:13;95307.38;;;2.16;90.82
78168;BME280;67410;42.698;23.378;2024-01-06T05:26:40;95309.41;;;2.28;90.46
78168;BME280;67410;42.698;23.378;2024-01-06T05:29:06;95311.22;;;2.20;91.36
78168;BME280;67410;42.698;23.378;2024-01-06T05:31:32;95290.44;;;1.89;92.31
78168;BME280;67410;42.698;23.378;2024-01-06T05:33:58;95282.66;;;1.89;92.59
78168;BME280;67410;42.698;23.378;2024-01-06T05:36:24;95288.72;;;2.12;92.01
78168;BME280;67410;42.698;23.378;2024-01-06T05:38:50;95296.84;;;2.01;91.61
78168;BME280;67410;42.698;23.378;2024-01-06T05:41:16;95282.25;;;2.00;91.39
78168;BME280;67410;42.698;23.378;2024-01-06T05:43:43;95290.19;;;2.07;91.96
78168;BME280;67410;42.698;23.378;2024-01-06T05:46:09;95301.19;;;2.17;90.83
78168;BME280;67410;42.698;23.378;2024-01-06T05:48:37;95294.22;;;2.17;91.31
78168;BME280;67410;42.698;23.378;2024-01-06T05:51:06;95285.31;;;2.12;90.99
78168;BME280;67410;42.698;23.378;2024-01-06T05:53:32;95291.06;;;2.30;89.79
78168;BME280;67410;42.698;23.378;2024-01-06T05:55:58;95294.72;;;2.44;88.79
78168;BME280;67410;42.698;23.378;2024-01-06T05:58:24;95304.09;;;2.53;87.49
78168;BME280;67410;42.698;23.378;2024-01-06T06:00:50;95268.13;;;2.42;87.25
78168;BME280;67410;42.698;23.378;2024-01-06T06:03:16;95294.97;;;2.57;86.48
78168;BME280;67410;42.698;23.378;2024-01-06T06:05:42;95288.59;;;2.67;85.34
78168;BME280;67410;42.698;23.378;2024-01-06T06:08:09;95282.97;;;2.79;84.36
78168;BME280;67410;42.698;23.378;2024-01-06T06:10:35;95295.22;;;2.70;85.41
78168;BME280;67410;42.698;23.378;2024-01-06T06:13:17;95283.25;;;2.84;84.85
78168;BME280;67410;42.698;23.378;2024-01-06T06:15:43;95284.88;;;2.85;84.16
78168;BME280;67410;42.698;23.378;2024-01-06T06:18:09;95272.56;;;3.01;83.54
78168;BME280;67410;42.698;23.378;2024-01-06T06:20:35;95277.19;;;3.14;83.22
78168;BME280;67410;42.698;23.378;2024-01-06T06:23:01;95273.91;;;2.97;84.68
78168;BME280;67410;42.698;23.378;2024-01-06T06:25:27;95281.72;;;2.97;84.24
78168;BME280;67410;42.698;23.378;2024-01-06T06:27:53;95284.03;;;2.92;84.32
78168;BME280;67410;42.698;23.378;2024-01-06T06:30:19;95277.75;;;2.79;84.47
78168;BME280;67410;42.698;23.378;2024-01-06T06:32:46;95277.88;;;2.85;84.73
78168;BME280;67410;42.698;23.378;2024-01-06T06:35:13;95288.06;;;2.95;84.01
78168;BME280;67410;42.698;23.378;2024-01-06T06:37:40;95295.56;;;2.90;84.31
78168;BME280;67410;42.698;23.378;2024-01-06T06:40:06;95300.09;;;2.73;85.16
78168;BME280;67410;42.698;23.378;2024-01-06T06:42:33;95292.47;;;2.71;85.31
78168;BME280;67410;42.698;23.378;2024-01-06T06:44:59;95291.91;;;2.76;85.49
78168;BME280;67410;42.698;23.378;2024-01-06T06:47:25;95282.16;;;3.01;85.64
78168;BME280;67410;42.698;23.378;2024-01-06T06:49:51;95287.28;;;3.09;85.69
78168;BME280;67410;42.698;23.378;2024-01-06T06:52:17;95292.38;;;3.25;83.38
78168;BME280;67410;42.698;23.378;2024-01-06T06:54:43;95299.47;;;3.31;83.64
78168;BME280;67410;42.698;23.378;2024-01-06T06:57:09;95284.47;;;3.19;83.43
78168;BME280;67410;42.698;23.378;2024-01-06T06:59:35;95282.81;;;3.40;84.09
78168;BME280;67410;42.698;23.378;2024-01-06T07:02:01;95265.69;;;3.46;82.53
78168;BME280;67410;42.698;23.378;2024-01-06T07:04:28;95300.34;;;3.76;83.05
78168;BME280;67410;42.698;23.378;2024-01-06T07:06:54;95283.13;;;3.75;82.21
78168;BME280;67410;42.698;23.378;2024-01-06T07:09:20;95287.06;;;3.86;82.06
78168;BME280;67410;42.698;23.378;2024-01-06T07:11:49;95279.75;;;4.11;81.97
78168;BME280;67410;42.698;23.378;2024-01-06T07:14:15;95286.41;;;4.28;81.60
78168;BME280;67410;42.698;23.378;2024-01-06T07:16:41;95275.81;;;4.29;80.39
78168;BME280;67410;42.698;23.378;2024-01-06T07:19:07;95290.13;;;4.55;79.99
78168;BME280;67410;42.698;23.378;2024-01-06T07:21:33;95276.47;;;4.53;78.93
78168;BME280;67410;42.698;23.378;2024-01-06T07:24:00;95282.63;;;4.66;79.34
78168;BME280;67410;42.698;23.378;2024-01-06T07:26:27;95277.31;;;4.96;78.97
78168;BME280;67410;42.698;23.378;2024-01-06T07:28:53;95285.44;;;5.29;78.91
78168;BME280;67410;42.698;23.378;2024-01-06T07:31:19;95273.75;;;5.53;76.33
78168;BME280;67410;42.698;23.378;2024-01-06T07:33:45;95272.44;;;5.63;77.05
78168;BME280;67410;42.698;23.378;2024-01-06T07:36:11;95285.13;;;5.94;74.44
78168;BME280;67410;42.698;23.378;2024-01-06T07:38:37;95283.91;;;5.90;75.47
78168;BME280;67410;42.698;23.378;2024-01-06T07:41:04;95290.59;;;5.99;76.25
78168;BME280;67410;42.698;23.378;2024-01-06T07:43:33;95256.22;;;5.68;76.30
78168;BME280;67410;42.698;23.378;2024-01-06T07:45:59;95278.25;;;5.59;76.17
78168;BME280;67410;42.698;23.378;2024-01-06T07:48:25;95271.16;;;5.53;75.61
78168;BME280;67410;42.698;23.378;2024-01-06T07:50:51;95286.38;;;5.77;75.27
78168;BME280;67410;42.698;23.378;2024-01-06T07:53:17;95285.06;;;5.88;75.50
78168;BME280;67410;42.698;23.378;2024-01-06T07:55:44;95273.91;;;6.00;76.28
78168;BME280;67410;42.698;23.378;2024-01-06T07:58:10;95282.84;;;6.19;74.56
78168;BME280;67410;42.698;23.378;2024-01-06T08:00:37;95273.97;;;6.14;75.28
78168;BME280;67410;42.698;23.378;2024-01-06T08:03:03;95291.09;;;6.70;73.39
78168;BME280;67410;42.698;23.378;2024-01-06T08:05:32;95274.44;;;6.78;71.25
78168;BME280;67410;42.698;23.378;2024-01-06T08:07:58;95282.94;;;7.06;70.34
78168;BME280;67410;42.698;23.378;2024-01-06T08:10:24;95283.88;;;6.86;70.23
78168;BME280;67410;42.698;23.378;2024-01-06T08:12:50;95291.13;;;6.77;71.17
78168;BME280;67410;42.698;23.378;2024-01-06T08:15:16;95306.75;;;6.57;71.13
78168;BME280;67410;42.698;23.378;2024-01-06T08:17:43;95293.16;;;6.34;71.68
78168;BME280;67410;42.698;23.378;2024-01-06T08:20:09;95275.53;;;6.08;71.48
78168;BME280;67410;42.698;23.378;2024-01-06T08:22:35;95297.16;;;6.23;72.62
78168;BME280;67410;42.698;23.378;2024-01-06T08:25:01;95272.75;;;6.09;73.37
78168;BME280;67410;42.698;23.378;2024-01-06T08:27:28;95275.50;;;6.42;72.55
78168;BME280;67410;42.698;23.378;2024-01-06T08:29:54;95277.66;;;6.26;71.73
78168;BME280;67410;42.698;23.378;2024-01-06T08:32:20;95277.72;;;6.39;71.74
78168;BME280;67410;42.698;23.378;2024-01-06T08:34:47;95299.16;;;6.75;71.12
78168;BME280;67410;42.698;23.378;2024-01-06T08:37:13;95274.03;;;6.94;70.89
78168;BME280;67410;42.698;23.378;2024-01-06T08:39:39;95277.91;;;7.77;66.64
78168;BME280;67410;42.698;23.378;2024-01-06T08:42:06;95260.53;;;7.96;64.63
78168;BME280;67410;42.698;23.378;2024-01-06T08:44:33;95271.44;;;7.73;64.83
78168;BME280;67410;42.698;23.378;2024-01-06T08:46:59;95275.22;;;8.10;65.68
78168;BME280;67410;42.698;23.378;2024-01-06T08:49:25;95274.56;;;8.41;66.24
78168;BME280;67410;42.698;23.378;2024-01-06T08:51:51;95264.88;;;8.35;65.15
78168;BME280;67410;42.698;23.378;2024-01-06T08:54:17;95267.66;;;9.48;61.72
78168;BME280;67410;42.698;23.378;2024-01-06T08:56:43;95271.47;;;9.52;60.51
78168;BME280;67410;42.698;23.378;2024-01-06T08:59:09;95265.88;;;9.17;62.02
78168;BME280;67410;42.698;23.378;2024-01-06T09:01:35;95252.50;;;8.94;62.52
78168;BME280;67410;42.698;23.378;2024-01-06T09:04:03;95274.00;;;9.09;62.12
78168;BME280;67410;42.698;23.378;2024-01-06T09:06:29;95254.13;;;9.20;62.54
78168;BME280;67410;42.698;23.378;2024-01-06T09:08:55;95244.56;;;9.57;61.32
78168;BME280;67410;42.698;23.378;2024-01-06T09:11:21;95257.78;;;9.43;60.76
78168;BME280;67410;42.698;23.378;2024-01-06T09:13:47;95242.19;;;9.92;60.76
78168;BME280;67410;42.698;23.378;2024-01-06T09:16:13;95241.75;;;10.68;58.83
78168;BME280;67410;42.698;23.378;2024-01-06T09:18:39;95233.59;;;10.58;57.40
78168;BME280;67410;42.698;23.378;2024-01-06T09:21:06;95228.78;;;10.84;55.88
78168;BME280;67410;42.698;23.378;2024-01-06T09:23:32;95233.63;;;10.69;56.76
78168;BME280;67410;42.698;23.378;2024-01-06T09:25:59;95212.47;;;10.76;57.09
78168;BME280;67410;42.698;23.378;2024-01-06T09:28:26;95222.84;;;10.04;57.73
78168;BME280;67410;42.698;23.378;2024-01-06T09:30:52;95219.69;;;10.14;57.63
78168;BME280;67410;42.698;23.378;2024-01-06T09:33:20;95207.78;;;9.93;58.48
78168;BME280;67410;42.698;23.378;2024-01-06T09:35:47;95206.97;;;9.74;59.06
78168;BME280;67410;42.698;23.378;2024-01-06T09:38:13;95202.47;;;8.82;61.66
78168;BME280;67410;42.698;23.378;2024-01-06T09:40:42;95201.38;;;8.96;61.40
78168;BME280;67410;42.698;23.378;2024-01-06T09:43:12;95195.09;;;8.97;61.45
78168;BME280;67410;42.698;23.378;2024-01-06T09:45:38;95197.03;;;9.08;62.81
78168;BME280;67410;42.698;23.378;2024-01-06T09:48:12;95203.38;;;9.26;61.88
78168;BME280;67410;42.698;23.378;2024-01-06T09:50:42;95174.06;;;9.29;61.96
78168;BME280;67410;42.698;23.378;2024-01-06T09:53:13;95194.59;;;9.32;61.16
78168;BME280;67410;42.698;23.378;2024-01-06T09:55:39;95189.66;;;9.24;60.50
78168;BME280;67410;42.698;23.378;2024-01-06T09:58:06;95186.41;;;8.72;61.92
78168;BME280;67410;42.698;23.378;2024-01-06T10:00:32;95180.16;;;8.66;61.79
78168;BME280;67410;42.698;23.378;2024-01-06T10:02:58;95168.34;;;8.82;62.70
78168;BME280;67410;42.698;23.378;2024-01-06T10:05:24;95165.53;;;8.77;62.86
78168;BME280;67410;42.698;23.378;2024-01-06T10:07:52;95149.31;;;8.62;63.09
78168;BME280;67410;42.698;23.378;2024-01-06T10:10:18;95165.72;;;8.82;62.94
78168;BME280;67410;42.698;23.378;2024-01-06T10:12:45;95145.41;;;8.71;64.48
78168;BME280;67410;42.698;23.378;2024-01-06T10:15:12;95151.88;;;7.86;65.26
78168;BME280;67410;42.698;23.378;2024-01-06T10:17:41;95145.34;;;8.08;65.17
78168;BME280;67410;42.698;23.378;2024-01-06T10:20:09;95142.19;;;7.93;66.08
78168;BME280;67410;42.698;23.378;2024-01-06T10:22:37;95145.81;;;7.92;66.43
78168;BME280;67410;42.698;23.378;2024-01-06T10:25:05;95146.13;;;8.08;66.93
78168;BME280;67410;42.698;23.378;2024-01-06T10:27:34;95134.34;;;8.24;65.73
78168;BME280;67410;42.698;23.378;2024-01-06T10:30:01;95111.28;;;7.95;68.67
78168;BME280;67410;42.698;23.378;2024-01-06T10:32:31;95126.88;;;7.83;67.67
78168;BME280;67410;42.698;23.378;2024-01-06T10:34:57;95113.56;;;7.85;67.55
78168;BME280;67410;42.698;23.378;2024-01-06T10:37:24;95129.53;;;8.21;66.99
78168;BME280;67410;42.698;23.378;2024-01-06T10:40:12;95123.44;;;8.34;66.08
78168;BME280;67410;42.698;23.378;2024-01-06T10:42:40;95098.00;;;8.28;66.51
78168;BME280;67410;42.698;23.378;2024-01-06T10:45:09;95107.28;;;8.37;65.39
78168;BME280;67410;42.698;23.378;2024-01-06T10:47:36;95104.53;;;7.74;68.68
78168;BME280;67410;42.698;23.378;2024-01-06T10:50:03;95103.88;;;8.23;67.27
78168;BME280;67410;42.698;23.378;2024-01-06T10:52:32;95098.22;;;8.26;67.33
78168;BME280;67410;42.698;23.378;2024-01-06T10:55:01;95083.44;;;8.45;66.37
78168;BME280;67410;42.698;23.378;2024-01-06T10:57:29;95088.16;;;8.23;66.23
78168;BME280;67410;42.698;23.378;2024-01-06T10:59:59;95074.56;;;8.01;67.70
78168;BME280;67410;42.698;23.378;2024-01-06T11:02:26;95085.25;;;8.00;66.29
78168;BME280;67410;42.698;23.378;2024-01-06T11:04:52;95071.78;;;8.28;66.84
78168;BME280;67410;42.698;23.378;2024-01-06T11:07:20;95059.09;;;8.25;65.31
78168;BME280;67410;42.698;23.378;2024-01-06T11:09:52;95070.09;;;8.46;64.84
78168;BME280;67410;42.698;23.378;2024-01-06T11:12:20;95051.81;;;8.27;67.04
78168;BME280;67410;42.698;23.378;2024-01-06T11:14:46;95058.03;;;8.39;64.53
78168;BME280;67410;42.698;23.378;2024-01-06T11:17:12;95063.50;;;8.31;65.31
78168;BME280;67410;42.698;23.378;2024-01-06T11:24:49;95055.75;;;8.74;64.23
78168;BME280;67410;42.698;23.378;2024-01-06T11:27:25;95038.84;;;8.88;64.00
78168;BME280;67410;42.698;23.378;2024-01-06T11:29:56;95034.41;;;8.89;64.59
78168;BME280;67410;42.698;23.378;2024-01-06T11:32:51;95044.72;;;9.27;64.08
78168;BME280;67410;42.698;23.378;2024-01-06T11:35:16;95024.00;;;9.55;62.90
78168;BME280;67410;42.698;23.378;2024-01-06T11:42:47;95010.81;;;10.33;59.21
78168;BME280;67410;42.698;23.378;2024-01-06T11:45:14;95006.34;;;10.04;60.03
78168;BME280;67410;42.698;23.378;2024-01-06T11:47:48;94992.28;;;9.98;59.38
78168;BME280;67410;42.698;23.378;2024-01-06T11:50:16;94985.81;;;9.82;60.44
78168;BME280;67410;42.698;23.378;2024-01-06T11:52:42;94980.09;;;9.85;60.98
78168;BME280;67410;42.698;23.378;2024-01-06T11:55:09;94968.81;;;9.97;60.80
78168;BME280;67410;42.698;23.378;2024-01-06T11:57:35;94965.38;;;9.96;60.87
78168;BME280;67410;42.698;23.378;2024-01-06T12:00:02;94959.03;;;9.74;61.94
78168;BME280;67410;42.698;23.378;2024-01-06T12:02:30;94956.94;;;10.36;60.30
78168;BME280;67410;42.698;23.378;2024-01-06T12:04:56;94954.75;;;10.79;59.13
78168;BME280;67410;42.698;23.378;2024-01-06T12:07:22;94956.25;;;10.87;58.85
78168;BME280;67410;42.698;23.378;2024-01-06T12:09:49;94949.38;;;10.63;59.39
78168;BME280;67410;42.698;23.378;2024-01-06T12:12:16;94944.81;;;10.58;58.80
78168;BME280;67410;42.698;23.378;2024-01-06T12:14:42;94926.72;;;10.50;60.39
78168;BME280;67410;42.698;23.378;2024-01-06T12:17:09;94902.69;;;10.35;60.39
78168;BME280;67410;42.698;23.378;2024-01-06T12:19:35;94905.53;;;10.57;60.40
78168;BME280;67410;42.698;23.378;2024-01-06T12:22:02;94900.72;;;10.65;60.30
78168;BME280;67410;42.698;23.378;2024-01-06T12:24:28;94911.69;;;10.85;59.86
78168;BME280;67410;42.698;23.378;2024-01-06T12:26:56;94921.28;;;11.43;59.42
78168;BME280;67410;42.698;23.378;2024-01-06T12:29:26;94929.19;;;11.43;58.74
78168;BME280;67410;42.698;23.378;2024-01-06T12:31:55;94929.66;;;11.40;59.35
78168;BME280;67410;42.698;23.378;2024-01-06T12:34:21;94940.56;;;11.32;59.63
78168;BME280;67410;42.698;23.378;2024-01-06T12:36:52;94947.25;;;11.11;59.33
78168;BME280;67410;42.698;23.378;2024-01-06T12:39:18;94928.53;;;10.73;59.69
78168;BME280;67410;42.698;23.378;2024-01-06T12:41:45;94923.84;;;10.63;61.63
78168;BME280;67410;42.698;23.378;2024-01-06T12:44:11;94910.78;;;10.68;61.34
78168;BME280;67410;42.698;23.378;2024-01-06T12:46:38;94927.28;;;10.64;61.72
78168;BME280;67410;42.698;23.378;2024-01-06T12:49:04;94926.25;;;10.76;61.98
78168;BME280;67410;42.698;23.378;2024-01-06T12:51:30;94923.09;;;11.14;60.66
78168;BME280;67410;42.698;23.378;2024-01-06T12:53:56;94914.34;;;11.54;59.30
78168;BME280;67410;42.698;23.378;2024-01-06T12:56:23;94899.75;;;11.92;59.57
78168;BME280;67410;42.698;23.378;2024-01-06T12:58:50;94910.94;;;12.49;56.14
78168;BME280;67410;42.698;23.378;2024-01-06T13:01:16;94901.63;;;12.63;56.83
78168;BME280;67410;42.698;23.378;2024-01-06T13:03:43;94903.16;;;12.98;55.78
78168;BME280;67410;42.698;23.378;2024-01-06T13:06:09;94890.44;;;13.16;53.59
78168;BME280;67410;42.698;23.378;2024-01-06T13:08:36;94887.22;;;12.71;55.76